sensor_id;sensor_type;location;lat;lon;timestamp;P1;durP1;ratioP1;P2;durP2;ratioP2
13327;SDS011;6733;51.044;3.746;2024-02-26T00:00:48;2.47;;;1.23;;
13327;SDS011;6733;51.044;3.746;2024-02-26T00:03:14;2.70;;;1.53;;
13327;SDS011;6733;51.044;3.746;2024-02-26T00:05:40;2.00;;;1.43;;
13327;SDS011;6733;51.044;3.746;2024-02-26T00:08:06;2.33;;;1.70;;
13327;SDS011;6733;51.044;3.746;2024-02-26T00:10:32;3.87;;;1.63;;
13327;SDS011;6733;51.044;3.746;2024-02-26T00:12:59;2.37;;;1.50;;
13327;SDS011;6733;51.044;3.746;2024-02-26T00:15:25;2.57;;;1.40;;
13327;SDS011;6733;51.044;3.746;2024-02-26T00:17:53;2.97;;;1.50;;
13327;SDS011;6733;51.044;3.746;2024-02-26T00:20:19;1.67;;;1.40;;
13327;SDS011;6733;51.044;3.746;2024-02-26T00:22:45;2.37;;;1.40;;
13327;SDS011;6733;51.044;3.746;2024-02-26T00:25:11;1.50;;;1.40;;
13327;SDS011;6733;51.044;3.746;2024-02-26T00:27:38;1.90;;;1.50;;
13327;SDS011;6733;51.044;3.746;2024-02-26T00:30:06;1.93;;;1.47;;
13327;SDS011;6733;51.044;3.746;2024-02-26T00:32:32;1.77;;;1.67;;
13327;SDS011;6733;51.044;3.746;2024-02-26T00:34:58;2.03;;;1.60;;
13327;SDS011;6733;51.044;3.746;2024-02-26T00:37:25;2.27;;;1.60;;
13327;SDS011;6733;51.044;3.746;2024-02-26T00:39:51;1.67;;;1.57;;
13327;SDS011;6733;51.044;3.746;2024-02-26T00:42:18;2.07;;;1.70;;
13327;SDS011;6733;51.044;3.746;2024-02-26T00:44:44;2.63;;;1.40;;
13327;SDS011;6733;51.044;3.746;2024-02-26T00:47:11;1.70;;;1.50;;
13327;SDS011;6733;51.044;3.746;2024-02-26T00:49:37;3.43;;;1.60;;
13327;SDS011;6733;51.044;3.746;2024-02-26T00:52:03;2.20;;;1.53;;
13327;SDS011;6733;51.044;3.746;2024-02-26T00:54:30;1.43;;;1.30;;
13327;SDS011;6733;51.044;3.746;2024-02-26T00:56:56;1.80;;;1.50;;
13327;SDS011;6733;51.044;3.746;2024-02-26T00:59:22;2.53;;;1.50;;
13327;SDS011;6733;51.044;3.746;2024-02-26T01:01:48;2.97;;;1.50;;
13327;SDS011;6733;51.044;3.746;2024-02-26T01:04:14;1.80;;;1.70;;
13327;SDS011;6733;51.044;3.746;2024-02-26T01:06:40;1.73;;;1.40;;
13327;SDS011;6733;51.044;3.746;2024-02-26T01:09:06;2.90;;;1.83;;
13327;SDS011;6733;51.044;3.746;2024-02-26T01:11:33;3.23;;;1.87;;
13327;SDS011;6733;51.044;3.746;2024-02-26T01:14:00;3.10;;;1.63;;
13327;SDS011;6733;51.044;3.746;2024-02-26T01:16:27;1.70;;;1.50;;
13327;SDS011;6733;51.044;3.746;2024-02-26T01:18:54;1.80;;;1.50;;
13327;SDS011;6733;51.044;3.746;2024-02-26T01:21:21;4.40;;;1.83;;
13327;SDS011;6733;51.044;3.746;2024-02-26T01:23:47;3.27;;;1.73;;
13327;SDS011;6733;51.044;3.746;2024-02-26T01:26:13;1.70;;;1.50;;
13327;SDS011;6733;51.044;3.746;2024-02-26T01:28:39;2.03;;;1.50;;
13327;SDS011;6733;51.044;3.746;2024-02-26T01:31:05;2.07;;;1.50;;
13327;SDS011;6733;51.044;3.746;2024-02-26T01:33:34;2.60;;;1.50;;
13327;SDS011;6733;51.044;3.746;2024-02-26T01:36:00;2.10;;;1.50;;
13327;SDS011;6733;51.044;3.746;2024-02-26T01:38:26;1.60;;;1.50;;
13327;SDS011;6733;51.044;3.746;2024-02-26T01:40:53;2.17;;;1.40;;
13327;SDS011;6733;51.044;3.746;2024-02-26T01:43:19;1.50;;;1.40;;
13327;SDS011;6733;51.044;3.746;2024-02-26T01:45:45;1.77;;;1.60;;
13327;SDS011;6733;51.044;3.746;2024-02-26T01:48:11;2.33;;;1.70;;
13327;SDS011;6733;51.044;3.746;2024-02-26T01:50:38;2.37;;;1.40;;
13327;SDS011;6733;51.044;3.746;2024-02-26T01:53:05;1.80;;;1.50;;
13327;SDS011;6733;51.044;3.746;2024-02-26T01:55:32;3.67;;;1.80;;
13327;SDS011;6733;51.044;3.746;2024-02-26T01:57:59;1.77;;;1.67;;
13327;SDS011;6733;51.044;3.746;2024-02-26T02:00:26;2.17;;;1.60;;
13327;SDS011;6733;51.044;3.746;2024-02-26T02:02:53;1.93;;;1.83;;
13327;SDS011;6733;51.044;3.746;2024-02-26T02:05:20;2.03;;;1.70;;
13327;SDS011;6733;51.044;3.746;2024-02-26T02:07:48;1.87;;;1.73;;
13327;SDS011;6733;51.044;3.746;2024-02-26T02:10:15;2.37;;;1.80;;
13327;SDS011;6733;51.044;3.746;2024-02-26T02:12:42;2.83;;;1.73;;
13327;SDS011;6733;51.044;3.746;2024-02-26T02:15:09;3.70;;;2.10;;
13327;SDS011;6733;51.044;3.746;2024-02-26T02:17:35;2.07;;;1.53;;
13327;SDS011;6733;51.044;3.746;2024-02-26T02:20:02;2.90;;;1.87;;
13327;SDS011;6733;51.044;3.746;2024-02-26T02:22:29;2.10;;;1.90;;
13327;SDS011;6733;51.044;3.746;2024-02-26T02:24:57;2.30;;;1.73;;
13327;SDS011;6733;51.044;3.746;2024-02-26T02:27:24;1.73;;;1.63;;
13327;SDS011;6733;51.044;3.746;2024-02-26T02:29:51;1.93;;;1.70;;
13327;SDS011;6733;51.044;3.746;2024-02-26T02:32:18;2.00;;;1.70;;
13327;SDS011;6733;51.044;3.746;2024-02-26T02:34:45;2.33;;;1.87;;
13327;SDS011;6733;51.044;3.746;2024-02-26T02:37:37;5.57;;;2.07;;
13327;SDS011;6733;51.044;3.746;2024-02-26T02:40:28;3.50;;;2.13;;
13327;SDS011;6733;51.044;3.746;2024-02-26T02:43:19;2.13;;;1.83;;
13327;SDS011;6733;51.044;3.746;2024-02-26T02:46:10;2.37;;;1.80;;
13327;SDS011;6733;51.044;3.746;2024-02-26T02:49:04;1.77;;;1.63;;
13327;SDS011;6733;51.044;3.746;2024-02-26T02:51:58;3.50;;;1.97;;
13327;SDS011;6733;51.044;3.746;2024-02-26T02:54:49;2.90;;;1.70;;
13327;SDS011;6733;51.044;3.746;2024-02-26T02:57:40;2.20;;;2.07;;
13327;SDS011;6733;51.044;3.746;2024-02-26T03:00:32;2.60;;;1.80;;
13327;SDS011;6733;51.044;3.746;2024-02-26T03:02:58;2.30;;;2.10;;
13327;SDS011;6733;51.044;3.746;2024-02-26T03:05:24;3.13;;;2.00;;
13327;SDS011;6733;51.044;3.746;2024-02-26T03:07:50;2.10;;;2.00;;
13327;SDS011;6733;51.044;3.746;2024-02-26T03:10:18;3.00;;;2.23;;
13327;SDS011;6733;51.044;3.746;2024-02-26T03:12:45;3.30;;;2.30;;
13327;SDS011;6733;51.044;3.746;2024-02-26T03:15:11;2.43;;;2.23;;
13327;SDS011;6733;51.044;3.746;2024-02-26T03:17:37;2.60;;;2.40;;
13327;SDS011;6733;51.044;3.746;2024-02-26T03:20:04;3.03;;;2.33;;
13327;SDS011;6733;51.044;3.746;2024-02-26T03:22:30;3.03;;;2.30;;
13327;SDS011;6733;51.044;3.746;2024-02-26T03:24:58;2.90;;;2.37;;
13327;SDS011;6733;51.044;3.746;2024-02-26T03:27:24;2.67;;;2.40;;
13327;SDS011;6733;51.044;3.746;2024-02-26T03:29:50;3.00;;;2.80;;
13327;SDS011;6733;51.044;3.746;2024-02-26T03:32:16;3.23;;;2.93;;
13327;SDS011;6733;51.044;3.746;2024-02-26T03:34:42;3.20;;;2.90;;
13327;SDS011;6733;51.044;3.746;2024-02-26T03:37:09;3.43;;;2.90;;
13327;SDS011;6733;51.044;3.746;2024-02-26T03:39:36;3.10;;;2.90;;
13327;SDS011;6733;51.044;3.746;2024-02-26T03:42:03;3.30;;;3.10;;
13327;SDS011;6733;51.044;3.746;2024-02-26T03:44:29;3.17;;;2.93;;
13327;SDS011;6733;51.044;3.746;2024-02-26T03:46:55;3.20;;;3.00;;
13327;SDS011;6733;51.044;3.746;2024-02-26T03:49:22;3.50;;;3.20;;
13327;SDS011;6733;51.044;3.746;2024-02-26T03:51:48;3.77;;;3.10;;
13327;SDS011;6733;51.044;3.746;2024-02-26T03:54:14;4.10;;;3.13;;
13327;SDS011;6733;51.044;3.746;2024-02-26T03:56:40;3.77;;;3.23;;
13327;SDS011;6733;51.044;3.746;2024-02-26T03:59:06;3.20;;;3.00;;
13327;SDS011;6733;51.044;3.746;2024-02-26T04:01:33;3.60;;;3.27;;
13327;SDS011;6733;51.044;3.746;2024-02-26T04:03:59;3.93;;;3.57;;
13327;SDS011;6733;51.044;3.746;2024-02-26T04:06:25;3.80;;;3.50;;
13327;SDS011;6733;51.044;3.746;2024-02-26T04:08:51;4.13;;;3.73;;
13327;SDS011;6733;51.044;3.746;2024-02-26T04:11:17;5.10;;;4.00;;
13327;SDS011;6733;51.044;3.746;2024-02-26T04:13:44;4.77;;;4.10;;
13327;SDS011;6733;51.044;3.746;2024-02-26T04:16:16;4.50;;;3.83;;
13327;SDS011;6733;51.044;3.746;2024-02-26T04:18:42;4.67;;;4.23;;
13327;SDS011;6733;51.044;3.746;2024-02-26T04:21:09;4.63;;;4.27;;
13327;SDS011;6733;51.044;3.746;2024-02-26T04:23:35;4.70;;;4.20;;
13327;SDS011;6733;51.044;3.746;2024-02-26T04:26:01;4.37;;;3.97;;
13327;SDS011;6733;51.044;3.746;2024-02-26T04:28:27;4.90;;;4.50;;
13327;SDS011;6733;51.044;3.746;2024-02-26T04:30:55;4.53;;;4.13;;
13327;SDS011;6733;51.044;3.746;2024-02-26T04:33:21;4.70;;;4.30;;
13327;SDS011;6733;51.044;3.746;2024-02-26T04:35:48;4.43;;;4.03;;
13327;SDS011;6733;51.044;3.746;2024-02-26T04:38:14;4.53;;;4.13;;
13327;SDS011;6733;51.044;3.746;2024-02-26T04:40:40;4.90;;;4.40;;
13327;SDS011;6733;51.044;3.746;2024-02-26T04:43:06;4.20;;;3.80;;
13327;SDS011;6733;51.044;3.746;2024-02-26T04:45:32;4.50;;;4.10;;
13327;SDS011;6733;51.044;3.746;2024-02-26T04:47:59;4.27;;;3.93;;
13327;SDS011;6733;51.044;3.746;2024-02-26T04:50:25;4.40;;;3.83;;
13327;SDS011;6733;51.044;3.746;2024-02-26T04:52:51;4.73;;;4.17;;
13327;SDS011;6733;51.044;3.746;2024-02-26T04:55:17;4.37;;;3.90;;
13327;SDS011;6733;51.044;3.746;2024-02-26T04:57:44;3.93;;;3.63;;
13327;SDS011;6733;51.044;3.746;2024-02-26T05:00:10;3.87;;;3.57;;
13327;SDS011;6733;51.044;3.746;2024-02-26T05:02:37;4.27;;;3.87;;
13327;SDS011;6733;51.044;3.746;2024-02-26T05:05:06;4.10;;;3.70;;
13327;SDS011;6733;51.044;3.746;2024-02-26T05:07:38;3.67;;;3.37;;
13327;SDS011;6733;51.044;3.746;2024-02-26T05:10:05;3.33;;;3.00;;
13327;SDS011;6733;51.044;3.746;2024-02-26T05:12:32;3.47;;;3.17;;
13327;SDS011;6733;51.044;3.746;2024-02-26T05:15:00;3.60;;;3.07;;
13327;SDS011;6733;51.044;3.746;2024-02-26T05:17:27;3.80;;;3.43;;
13327;SDS011;6733;51.044;3.746;2024-02-26T05:19:53;3.63;;;3.33;;
13327;SDS011;6733;51.044;3.746;2024-02-26T05:22:20;3.30;;;3.10;;
13327;SDS011;6733;51.044;3.746;2024-02-26T05:24:46;3.67;;;3.10;;
13327;SDS011;6733;51.044;3.746;2024-02-26T05:27:12;3.50;;;3.20;;
13327;SDS011;6733;51.044;3.746;2024-02-26T05:29:38;3.80;;;3.50;;
13327;SDS011;6733;51.044;3.746;2024-02-26T05:32:05;4.00;;;3.70;;
13327;SDS011;6733;51.044;3.746;2024-02-26T05:34:32;3.67;;;3.37;;
13327;SDS011;6733;51.044;3.746;2024-02-26T05:36:59;5.57;;;3.70;;
13327;SDS011;6733;51.044;3.746;2024-02-26T05:39:25;4.43;;;3.40;;
13327;SDS011;6733;51.044;3.746;2024-02-26T05:41:51;3.50;;;3.20;;
13327;SDS011;6733;51.044;3.746;2024-02-26T05:44:17;3.40;;;3.10;;
13327;SDS011;6733;51.044;3.746;2024-02-26T05:46:43;3.77;;;3.47;;
13327;SDS011;6733;51.044;3.746;2024-02-26T05:49:09;3.40;;;3.13;;
13327;SDS011;6733;51.044;3.746;2024-02-26T05:51:35;3.60;;;3.30;;
13327;SDS011;6733;51.044;3.746;2024-02-26T05:54:01;3.33;;;3.00;;
13327;SDS011;6733;51.044;3.746;2024-02-26T05:56:28;3.30;;;2.97;;
13327;SDS011;6733;51.044;3.746;2024-02-26T05:58:54;3.87;;;3.47;;
13327;SDS011;6733;51.044;3.746;2024-02-26T06:01:20;3.47;;;3.17;;
13327;SDS011;6733;51.044;3.746;2024-02-26T06:03:46;3.50;;;3.20;;
13327;SDS011;6733;51.044;3.746;2024-02-26T06:06:13;4.17;;;3.50;;
13327;SDS011;6733;51.044;3.746;2024-02-26T06:08:40;5.00;;;3.27;;
13327;SDS011;6733;51.044;3.746;2024-02-26T06:11:06;4.43;;;3.53;;
13327;SDS011;6733;51.044;3.746;2024-02-26T06:13:33;4.00;;;3.70;;
13327;SDS011;6733;51.044;3.746;2024-02-26T06:16:00;4.00;;;3.60;;
13327;SDS011;6733;51.044;3.746;2024-02-26T06:18:26;4.13;;;3.83;;
13327;SDS011;6733;51.044;3.746;2024-02-26T06:20:52;4.00;;;3.70;;
13327;SDS011;6733;51.044;3.746;2024-02-26T06:23:18;4.87;;;3.70;;
13327;SDS011;6733;51.044;3.746;2024-02-26T06:25:44;4.70;;;4.23;;
13327;SDS011;6733;51.044;3.746;2024-02-26T06:28:15;3.90;;;3.60;;
13327;SDS011;6733;51.044;3.746;2024-02-26T06:30:41;3.90;;;3.60;;
13327;SDS011;6733;51.044;3.746;2024-02-26T06:33:08;3.90;;;3.60;;
13327;SDS011;6733;51.044;3.746;2024-02-26T06:35:34;4.13;;;3.83;;
13327;SDS011;6733;51.044;3.746;2024-02-26T06:38:00;4.00;;;3.70;;
13327;SDS011;6733;51.044;3.746;2024-02-26T06:40:26;3.90;;;3.50;;
13327;SDS011;6733;51.044;3.746;2024-02-26T06:42:52;4.10;;;3.70;;
13327;SDS011;6733;51.044;3.746;2024-02-26T06:45:19;4.67;;;4.20;;
13327;SDS011;6733;51.044;3.746;2024-02-26T06:47:45;4.23;;;3.83;;
13327;SDS011;6733;51.044;3.746;2024-02-26T06:50:11;4.83;;;4.43;;
13327;SDS011;6733;51.044;3.746;2024-02-26T06:52:39;4.23;;;3.83;;
13327;SDS011;6733;51.044;3.746;2024-02-26T06:55:05;4.50;;;4.10;;
13327;SDS011;6733;51.044;3.746;2024-02-26T06:57:34;4.00;;;3.70;;
13327;SDS011;6733;51.044;3.746;2024-02-26T07:00:00;3.90;;;3.60;;
13327;SDS011;6733;51.044;3.746;2024-02-26T07:02:28;3.50;;;3.20;;
13327;SDS011;6733;51.044;3.746;2024-02-26T07:04:55;3.73;;;3.40;;
13327;SDS011;6733;51.044;3.746;2024-02-26T07:07:24;4.90;;;3.90;;
13327;SDS011;6733;51.044;3.746;2024-02-26T07:09:50;4.00;;;3.60;;
13327;SDS011;6733;51.044;3.746;2024-02-26T07:12:17;4.20;;;3.80;;
13327;SDS011;6733;51.044;3.746;2024-02-26T07:14:45;3.93;;;3.53;;
13327;SDS011;6733;51.044;3.746;2024-02-26T07:17:11;4.60;;;3.93;;
13327;SDS011;6733;51.044;3.746;2024-02-26T07:19:37;3.70;;;3.40;;
13327;SDS011;6733;51.044;3.746;2024-02-26T07:22:04;3.40;;;3.10;;
13327;SDS011;6733;51.044;3.746;2024-02-26T07:24:31;3.70;;;3.50;;
13327;SDS011;6733;51.044;3.746;2024-02-26T07:26:57;4.10;;;3.80;;
13327;SDS011;6733;51.044;3.746;2024-02-26T07:29:23;5.17;;;3.53;;
13327;SDS011;6733;51.044;3.746;2024-02-26T07:31:49;3.80;;;3.50;;
13327;SDS011;6733;51.044;3.746;2024-02-26T07:34:15;3.90;;;3.60;;
13327;SDS011;6733;51.044;3.746;2024-02-26T07:36:41;4.53;;;4.07;;
13327;SDS011;6733;51.044;3.746;2024-02-26T07:39:07;5.00;;;3.87;;
13327;SDS011;6733;51.044;3.746;2024-02-26T07:41:33;3.73;;;3.43;;
13327;SDS011;6733;51.044;3.746;2024-02-26T07:43:59;3.97;;;3.63;;
13327;SDS011;6733;51.044;3.746;2024-02-26T07:46:26;4.03;;;3.63;;
13327;SDS011;6733;51.044;3.746;2024-02-26T07:48:52;4.30;;;3.90;;
13327;SDS011;6733;51.044;3.746;2024-02-26T07:51:18;4.30;;;4.00;;
13327;SDS011;6733;51.044;3.746;2024-02-26T07:53:44;4.30;;;3.90;;
13327;SDS011;6733;51.044;3.746;2024-02-26T07:56:11;4.17;;;3.77;;
13327;SDS011;6733;51.044;3.746;2024-02-26T07:58:37;3.93;;;3.60;;
13327;SDS011;6733;51.044;3.746;2024-02-26T08:01:03;3.67;;;3.37;;
13327;SDS011;6733;51.044;3.746;2024-02-26T08:03:29;5.00;;;3.53;;
13327;SDS011;6733;51.044;3.746;2024-02-26T08:05:58;4.33;;;3.53;;
13327;SDS011;6733;51.044;3.746;2024-02-26T08:08:24;5.60;;;3.83;;
13327;SDS011;6733;51.044;3.746;2024-02-26T08:10:50;3.87;;;3.57;;
13327;SDS011;6733;51.044;3.746;2024-02-26T08:13:16;3.47;;;3.17;;
13327;SDS011;6733;51.044;3.746;2024-02-26T08:15:42;3.50;;;3.20;;
13327;SDS011;6733;51.044;3.746;2024-02-26T08:18:08;3.77;;;3.47;;
13327;SDS011;6733;51.044;3.746;2024-02-26T08:20:35;3.83;;;3.43;;
13327;SDS011;6733;51.044;3.746;2024-02-26T08:23:01;3.90;;;3.47;;
13327;SDS011;6733;51.044;3.746;2024-02-26T08:25:27;5.10;;;3.20;;
13327;SDS011;6733;51.044;3.746;2024-02-26T08:27:53;3.83;;;3.50;;
13327;SDS011;6733;51.044;3.746;2024-02-26T08:30:19;4.10;;;3.70;;
13327;SDS011;6733;51.044;3.746;2024-02-26T08:32:47;3.90;;;3.50;;
13327;SDS011;6733;51.044;3.746;2024-02-26T08:35:13;5.13;;;3.87;;
13327;SDS011;6733;51.044;3.746;2024-02-26T08:37:40;6.83;;;3.73;;
13327;SDS011;6733;51.044;3.746;2024-02-26T08:40:09;3.93;;;3.60;;
13327;SDS011;6733;51.044;3.746;2024-02-26T08:42:36;4.40;;;3.90;;
13327;SDS011;6733;51.044;3.746;2024-02-26T08:45:02;4.17;;;3.80;;
13327;SDS011;6733;51.044;3.746;2024-02-26T08:47:28;4.50;;;3.90;;
13327;SDS011;6733;51.044;3.746;2024-02-26T08:49:54;3.80;;;3.50;;
13327;SDS011;6733;51.044;3.746;2024-02-26T08:52:21;4.27;;;3.47;;
13327;SDS011;6733;51.044;3.746;2024-02-26T08:54:50;3.77;;;3.43;;
13327;SDS011;6733;51.044;3.746;2024-02-26T08:57:16;4.20;;;3.80;;
13327;SDS011;6733;51.044;3.746;2024-02-26T08:59:42;6.63;;;4.07;;
13327;SDS011;6733;51.044;3.746;2024-02-26T09:02:08;4.27;;;3.87;;
13327;SDS011;6733;51.044;3.746;2024-02-26T09:04:35;4.20;;;3.80;;
13327;SDS011;6733;51.044;3.746;2024-02-26T09:07:01;4.37;;;3.97;;
13327;SDS011;6733;51.044;3.746;2024-02-26T09:09:27;4.50;;;4.10;;
13327;SDS011;6733;51.044;3.746;2024-02-26T09:11:54;3.97;;;3.67;;
13327;SDS011;6733;51.044;3.746;2024-02-26T09:14:21;9.07;;;6.97;;
13327;SDS011;6733;51.044;3.746;2024-02-26T09:16:47;4.67;;;4.17;;
13327;SDS011;6733;51.044;3.746;2024-02-26T09:19:17;4.23;;;3.87;;
13327;SDS011;6733;51.044;3.746;2024-02-26T09:21:44;5.67;;;4.70;;
13327;SDS011;6733;51.044;3.746;2024-02-26T09:24:13;4.97;;;4.47;;
13327;SDS011;6733;51.044;3.746;2024-02-26T09:26:40;5.27;;;4.27;;
13327;SDS011;6733;51.044;3.746;2024-02-26T09:29:06;4.73;;;4.10;;
13327;SDS011;6733;51.044;3.746;2024-02-26T09:31:33;5.20;;;4.70;;
13327;SDS011;6733;51.044;3.746;2024-02-26T09:33:59;5.03;;;4.00;;
13327;SDS011;6733;51.044;3.746;2024-02-26T09:36:25;5.10;;;4.70;;
13327;SDS011;6733;51.044;3.746;2024-02-26T09:38:52;5.30;;;4.80;;
13327;SDS011;6733;51.044;3.746;2024-02-26T09:41:18;5.00;;;4.60;;
13327;SDS011;6733;51.044;3.746;2024-02-26T09:43:44;5.23;;;4.73;;
13327;SDS011;6733;51.044;3.746;2024-02-26T09:46:14;4.93;;;4.53;;
13327;SDS011;6733;51.044;3.746;2024-02-26T09:48:42;5.00;;;4.50;;
13327;SDS011;6733;51.044;3.746;2024-02-26T09:51:10;4.97;;;4.47;;
13327;SDS011;6733;51.044;3.746;2024-02-26T09:53:37;4.90;;;4.50;;
13327;SDS011;6733;51.044;3.746;2024-02-26T09:56:08;5.03;;;4.60;;
13327;SDS011;6733;51.044;3.746;2024-02-26T09:58:35;5.77;;;4.80;;
13327;SDS011;6733;51.044;3.746;2024-02-26T10:01:02;5.53;;;4.97;;
13327;SDS011;6733;51.044;3.746;2024-02-26T10:03:38;5.43;;;4.77;;
13327;SDS011;6733;51.044;3.746;2024-02-26T10:06:07;5.43;;;4.90;;
13327;SDS011;6733;51.044;3.746;2024-02-26T10:08:34;5.60;;;5.00;;
13327;SDS011;6733;51.044;3.746;2024-02-26T10:11:01;5.70;;;5.13;;
13327;SDS011;6733;51.044;3.746;2024-02-26T10:13:27;5.90;;;5.30;;
13327;SDS011;6733;51.044;3.746;2024-02-26T10:15:53;5.83;;;4.97;;
13327;SDS011;6733;51.044;3.746;2024-02-26T10:18:19;5.67;;;5.13;;
13327;SDS011;6733;51.044;3.746;2024-02-26T10:21:03;6.33;;;5.63;;
13327;SDS011;6733;51.044;3.746;2024-02-26T10:23:29;9.80;;;5.83;;
13327;SDS011;6733;51.044;3.746;2024-02-26T10:25:56;6.30;;;5.50;;
13327;SDS011;6733;51.044;3.746;2024-02-26T10:28:22;6.07;;;5.47;;
13327;SDS011;6733;51.044;3.746;2024-02-26T10:30:48;7.73;;;6.03;;
13327;SDS011;6733;51.044;3.746;2024-02-26T10:33:16;6.03;;;5.43;;
13327;SDS011;6733;51.044;3.746;2024-02-26T10:35:45;5.90;;;5.30;;
13327;SDS011;6733;51.044;3.746;2024-02-26T10:38:12;6.23;;;5.63;;
13327;SDS011;6733;51.044;3.746;2024-02-26T10:40:40;6.63;;;5.40;;
13327;SDS011;6733;51.044;3.746;2024-02-26T10:43:06;6.30;;;5.70;;
13327;SDS011;6733;51.044;3.746;2024-02-26T10:45:32;7.93;;;5.37;;
13327;SDS011;6733;51.044;3.746;2024-02-26T10:48:00;6.13;;;5.50;;
13327;SDS011;6733;51.044;3.746;2024-02-26T10:50:26;5.83;;;5.23;;
13327;SDS011;6733;51.044;3.746;2024-02-26T10:52:52;6.43;;;5.60;;
13327;SDS011;6733;51.044;3.746;2024-02-26T10:55:20;7.63;;;6.33;;
13327;SDS011;6733;51.044;3.746;2024-02-26T10:57:48;7.70;;;6.33;;
13327;SDS011;6733;51.044;3.746;2024-02-26T11:00:18;6.87;;;6.00;;
13327;SDS011;6733;51.044;3.746;2024-02-26T11:02:44;7.63;;;6.50;;
13327;SDS011;6733;51.044;3.746;2024-02-26T11:05:14;7.57;;;6.30;;
13327;SDS011;6733;51.044;3.746;2024-02-26T11:07:41;7.43;;;6.43;;
13327;SDS011;6733;51.044;3.746;2024-02-26T11:10:08;7.17;;;6.47;;
13327;SDS011;6733;51.044;3.746;2024-02-26T11:12:37;9.20;;;7.53;;
13327;SDS011;6733;51.044;3.746;2024-02-26T11:15:05;9.13;;;7.50;;
13327;SDS011;6733;51.044;3.746;2024-02-26T11:17:31;9.23;;;7.60;;
13327;SDS011;6733;51.044;3.746;2024-02-26T11:20:00;10.00;;;7.97;;
13327;SDS011;6733;51.044;3.746;2024-02-26T11:22:28;8.93;;;7.53;;
13327;SDS011;6733;51.044;3.746;2024-02-26T11:24:54;9.77;;;7.97;;
13327;SDS011;6733;51.044;3.746;2024-02-26T11:27:28;9.83;;;8.13;;
13327;SDS011;6733;51.044;3.746;2024-02-26T11:29:59;12.63;;;9.20;;
13327;SDS011;6733;51.044;3.746;2024-02-26T11:32:28;9.87;;;8.43;;
13327;SDS011;6733;51.044;3.746;2024-02-26T11:34:56;10.97;;;8.97;;
13327;SDS011;6733;51.044;3.746;2024-02-26T11:37:24;9.93;;;8.93;;
13327;SDS011;6733;51.044;3.746;2024-02-26T11:39:51;10.77;;;9.67;;
13327;SDS011;6733;51.044;3.746;2024-02-26T11:42:22;10.87;;;8.47;;
13327;SDS011;6733;51.044;3.746;2024-02-26T11:44:54;9.40;;;8.37;;
13327;SDS011;6733;51.044;3.746;2024-02-26T11:47:26;10.23;;;8.30;;
13327;SDS011;6733;51.044;3.746;2024-02-26T11:49:56;9.90;;;8.50;;
13327;SDS011;6733;51.044;3.746;2024-02-26T11:52:22;8.10;;;7.10;;
13327;SDS011;6733;51.044;3.746;2024-02-26T11:54:50;8.00;;;7.20;;
13327;SDS011;6733;51.044;3.746;2024-02-26T11:59:49;7.63;;;6.83;;
13327;SDS011;6733;51.044;3.746;2024-02-26T12:02:38;8.43;;;7.53;;
13327;SDS011;6733;51.044;3.746;2024-02-26T12:05:11;7.90;;;7.10;;
13327;SDS011;6733;51.044;3.746;2024-02-26T12:07:45;7.50;;;6.80;;
13327;SDS011;6733;51.044;3.746;2024-02-26T12:10:14;7.17;;;6.33;;
13327;SDS011;6733;51.044;3.746;2024-02-26T12:15:23;8.50;;;6.10;;
13327;SDS011;6733;51.044;3.746;2024-02-26T12:17:49;7.23;;;6.50;;
13327;SDS011;6733;51.044;3.746;2024-02-26T12:20:17;6.60;;;5.93;;
13327;SDS011;6733;51.044;3.746;2024-02-26T12:22:45;6.23;;;5.63;;
13327;SDS011;6733;51.044;3.746;2024-02-26T12:25:15;7.53;;;6.60;;
13327;SDS011;6733;51.044;3.746;2024-02-26T12:27:41;5.80;;;5.20;;
13327;SDS011;6733;51.044;3.746;2024-02-26T12:30:08;6.13;;;5.53;;
13327;SDS011;6733;51.044;3.746;2024-02-26T12:32:35;5.33;;;4.83;;
13327;SDS011;6733;51.044;3.746;2024-02-26T12:35:02;5.37;;;4.50;;
13327;SDS011;6733;51.044;3.746;2024-02-26T12:37:29;5.23;;;4.73;;
13327;SDS011;6733;51.044;3.746;2024-02-26T12:39:55;5.30;;;4.80;;
13327;SDS011;6733;51.044;3.746;2024-02-26T12:42:21;5.47;;;4.63;;
13327;SDS011;6733;51.044;3.746;2024-02-26T12:44:49;6.13;;;5.07;;
13327;SDS011;6733;51.044;3.746;2024-02-26T12:47:15;5.53;;;4.60;;
13327;SDS011;6733;51.044;3.746;2024-02-26T12:49:42;4.80;;;4.30;;
13327;SDS011;6733;51.044;3.746;2024-02-26T12:52:10;4.33;;;3.93;;
13327;SDS011;6733;51.044;3.746;2024-02-26T12:54:39;4.70;;;4.30;;
13327;SDS011;6733;51.044;3.746;2024-02-26T12:57:06;4.40;;;4.00;;
13327;SDS011;6733;51.044;3.746;2024-02-26T12:59:34;4.77;;;4.37;;
13327;SDS011;6733;51.044;3.746;2024-02-26T13:02:02;4.77;;;3.73;;
13327;SDS011;6733;51.044;3.746;2024-02-26T13:04:29;5.90;;;4.23;;
13327;SDS011;6733;51.044;3.746;2024-02-26T13:06:56;4.17;;;3.80;;
13327;SDS011;6733;51.044;3.746;2024-02-26T13:09:30;4.43;;;4.03;;
13327;SDS011;6733;51.044;3.746;2024-02-26T13:11:59;4.20;;;3.80;;
13327;SDS011;6733;51.044;3.746;2024-02-26T13:14:26;4.80;;;4.30;;
13327;SDS011;6733;51.044;3.746;2024-02-26T13:16:56;4.20;;;3.80;;
13327;SDS011;6733;51.044;3.746;2024-02-26T13:19:23;4.47;;;3.70;;
13327;SDS011;6733;51.044;3.746;2024-02-26T13:21:49;4.07;;;3.73;;
13327;SDS011;6733;51.044;3.746;2024-02-26T13:24:16;4.20;;;3.90;;
13327;SDS011;6733;51.044;3.746;2024-02-26T13:26:43;3.83;;;3.53;;
13327;SDS011;6733;51.044;3.746;2024-02-26T13:29:16;4.27;;;3.87;;
13327;SDS011;6733;51.044;3.746;2024-02-26T13:31:43;5.30;;;4.07;;
13327;SDS011;6733;51.044;3.746;2024-02-26T13:34:09;4.73;;;4.33;;
13327;SDS011;6733;51.044;3.746;2024-02-26T13:36:36;4.50;;;4.10;;
13327;SDS011;6733;51.044;3.746;2024-02-26T13:39:02;4.57;;;4.17;;
13327;SDS011;6733;51.044;3.746;2024-02-26T13:41:30;4.70;;;4.30;;
13327;SDS011;6733;51.044;3.746;2024-02-26T13:43:57;4.57;;;4.17;;
13327;SDS011;6733;51.044;3.746;2024-02-26T13:46:23;4.47;;;4.07;;
13327;SDS011;6733;51.044;3.746;2024-02-26T13:48:50;5.50;;;5.00;;
13327;SDS011;6733;51.044;3.746;2024-02-26T13:51:16;6.10;;;4.87;;
13327;SDS011;6733;51.044;3.746;2024-02-26T13:53:43;4.60;;;4.20;;
13327;SDS011;6733;51.044;3.746;2024-02-26T13:56:09;5.40;;;4.83;;
13327;SDS011;6733;51.044;3.746;2024-02-26T13:58:35;4.43;;;3.73;;
13327;SDS011;6733;51.044;3.746;2024-02-26T14:01:02;4.93;;;4.03;;
13327;SDS011;6733;51.044;3.746;2024-02-26T14:03:29;4.40;;;4.00;;
13327;SDS011;6733;51.044;3.746;2024-02-26T14:05:55;5.50;;;5.00;;
13327;SDS011;6733;51.044;3.746;2024-02-26T14:08:24;4.97;;;4.50;;
13327;SDS011;6733;51.044;3.746;2024-02-26T14:10:50;5.00;;;4.60;;
13327;SDS011;6733;51.044;3.746;2024-02-26T14:13:17;4.27;;;3.87;;
13327;SDS011;6733;51.044;3.746;2024-02-26T14:15:43;4.87;;;3.90;;
13327;SDS011;6733;51.044;3.746;2024-02-26T14:18:09;5.90;;;4.20;;
13327;SDS011;6733;51.044;3.746;2024-02-26T14:20:35;4.30;;;3.90;;
13327;SDS011;6733;51.044;3.746;2024-02-26T14:23:01;3.67;;;3.37;;
13327;SDS011;6733;51.044;3.746;2024-02-26T14:25:28;4.43;;;3.80;;
13327;SDS011;6733;51.044;3.746;2024-02-26T14:27:54;4.30;;;3.90;;
13327;SDS011;6733;51.044;3.746;2024-02-26T14:30:24;3.63;;;3.33;;
13327;SDS011;6733;51.044;3.746;2024-02-26T14:32:51;3.50;;;3.20;;
13327;SDS011;6733;51.044;3.746;2024-02-26T14:35:18;3.93;;;3.57;;
13327;SDS011;6733;51.044;3.746;2024-02-26T14:37:44;4.40;;;4.00;;
13327;SDS011;6733;51.044;3.746;2024-02-26T14:40:11;4.40;;;3.80;;
13327;SDS011;6733;51.044;3.746;2024-02-26T14:42:38;4.90;;;4.43;;
13327;SDS011;6733;51.044;3.746;2024-02-26T14:45:05;4.03;;;3.73;;
13327;SDS011;6733;51.044;3.746;2024-02-26T14:47:37;4.40;;;3.70;;
13327;SDS011;6733;51.044;3.746;2024-02-26T14:50:04;4.70;;;4.30;;
13327;SDS011;6733;51.044;3.746;2024-02-26T14:52:30;4.50;;;4.10;;
13327;SDS011;6733;51.044;3.746;2024-02-26T14:54:57;4.50;;;4.10;;
13327;SDS011;6733;51.044;3.746;2024-02-26T14:57:24;4.37;;;3.97;;
13327;SDS011;6733;51.044;3.746;2024-02-26T14:59:50;4.43;;;4.03;;
13327;SDS011;6733;51.044;3.746;2024-02-26T15:02:16;4.47;;;4.00;;
13327;SDS011;6733;51.044;3.746;2024-02-26T15:04:43;4.50;;;3.90;;
13327;SDS011;6733;51.044;3.746;2024-02-26T15:07:10;4.33;;;3.93;;